Time;durP1;ratioP1;P1;durP2;ratioP2;P2;SDS_P1;SDS_P2;PMS_P1;PMS_P2;Temp;Humidity;BMP_temperature;BMP_pressure;BME280_temperature;BME280_humidity;BME280_pressure;Samples;Min_cycle;Max_cycle;Signal;HPM_P1;HPM_P2
2022/01/13 00:01:45;;;;;;;33.37;22.13;;;-0.90;99.90;;;;;;5017729;28;20279;-72
2022/01/13 00:04:13;;;;;;;31.43;20.83;;;-0.90;99.90;;;;;;5012126;28;20196;-71
2022/01/13 00:06:39;;;;;;;33.90;21.40;;;-0.90;99.90;;;;;;5012408;28;20575;-70
2022/01/13 00:09:06;;;;;;;32.10;22.03;;;-0.80;99.90;;;;;;5012318;28;20594;-70
2022/01/13 00:11:32;;;;;;;32.80;21.57;;;-0.80;99.90;;;;;;5011260;28;20545;-70
2022/01/13 00:17:12;;;;;;;32.00;21.70;;;-0.70;99.90;;;;;;5012442;28;20708;-70
2022/01/13 00:19:48;;;;;;;31.63;21.80;;;-0.60;99.90;;;;;;5011862;28;20552;-70
2022/01/13 00:22:37;;;;;;;32.37;20.70;;;-0.80;99.90;;;;;;5012266;28;20189;-70
2022/01/13 00:25:06;;;;;;;34.03;21.63;;;-0.80;99.90;;;;;;5011816;28;20221;-71
2022/01/13 00:27:32;;;;;;;30.03;21.37;;;-0.80;99.90;;;;;;5012445;28;20188;-70
2022/01/13 00:30:01;;;;;;;30.77;21.67;;;-0.90;99.90;;;;;;5010858;28;20299;-70
2022/01/13 00:32:30;;;;;;;32.93;22.17;;;-0.90;99.90;;;;;;5012000;28;20268;-70
2022/01/13 00:34:55;;;;;;;31.37;21.93;;;-0.90;99.90;;;;;;5017754;28;20180;-70
2022/01/13 00:37:21;;;;;;;35.57;22.47;;;-0.90;99.90;;;;;;5031728;28;20606;-70
2022/01/13 00:39:46;;;;;;;33.37;22.70;;;-0.90;99.90;;;;;;5031872;28;20176;-70
2022/01/13 00:42:12;;;;;;;30.40;21.37;;;-0.90;99.90;;;;;;5031712;28;20192;-70
2022/01/13 00:44:38;;;;;;;30.37;20.27;;;-0.90;99.90;;;;;;5025136;28;20695;-71
2022/01/13 00:47:08;;;;;;;30.20;21.40;;;-0.90;99.90;;;;;;5016177;28;20243;-70
2022/01/13 00:49:34;;;;;;;27.83;20.57;;;-0.80;99.90;;;;;;5023161;28;20167;-70
2022/01/13 00:52:00;;;;;;;29.60;19.63;;;-0.70;99.90;;;;;;5046088;28;20187;-71
2022/01/13 00:54:26;;;;;;;31.47;21.67;;;-0.60;99.90;;;;;;5035386;28;20168;-70
2022/01/13 00:56:51;;;;;;;36.03;22.47;;;-0.80;99.90;;;;;;5021399;28;20265;-70
2022/01/13 00:59:17;;;;;;;33.60;22.43;;;-0.80;99.90;;;;;;5015937;28;20209;-70
2022/01/13 01:01:46;;;;;;;28.47;20.97;;;-0.70;99.90;;;;;;5015500;28;20208;-70
2022/01/13 01:04:12;;;;;;;32.37;22.63;;;-0.70;99.90;;;;;;5015610;28;20787;-70
2022/01/13 01:06:38;;;;;;;33.97;21.77;;;-0.70;99.90;;;;;;5015615;28;20253;-70
2022/01/13 01:09:05;;;;;;;35.87;22.97;;;-0.80;99.90;;;;;;5015564;28;20180;-70
2022/01/13 01:11:31;;;;;;;35.10;24.10;;;-0.80;99.90;;;;;;5015510;28;20169;-70
2022/01/13 01:13:59;;;;;;;34.30;23.67;;;-0.80;99.90;;;;;;5015485;28;20195;-70
2022/01/13 01:16:26;;;;;;;38.63;25.30;;;-0.90;99.90;;;;;;5015132;28;20174;-71
2022/01/13 01:19:02;;;;;;;39.10;24.93;;;-1.00;99.90;;;;;;5015889;28;20182;-70
2022/01/13 01:24:15;;;;;;;33.73;23.80;;;-0.90;99.90;;;;;;5015175;28;20212;-70
2022/01/13 01:26:55;;;;;;;37.17;24.90;;;-0.90;99.90;;;;;;5026289;28;20299;-70
2022/01/13 01:29:42;;;;;;;32.23;22.80;;;-0.80;99.90;;;;;;5035140;28;20160;-70
2022/01/13 01:32:11;;;;;;;33.10;22.70;;;-0.80;99.90;;;;;;5035038;28;20188;-70
2022/01/13 01:37:17;;;;;;;35.97;23.17;;;-0.70;99.90;;;;;;5015429;28;20177;-70
2022/01/13 01:39:49;;;;;;;34.57;23.40;;;-0.70;99.90;;;;;;5015122;28;20239;-70
2022/01/13 01:42:15;;;;;;;33.90;23.23;;;-0.60;99.90;;;;;;5015441;28;20197;-70
2022/01/13 01:44:44;;;;;;;38.63;25.47;;;-0.80;99.90;;;;;;5014538;28;20209;-69
2022/01/13 01:47:17;;;;;;;35.40;24.20;;;-0.80;99.90;;;;;;5014951;28;20192;-70
2022/01/13 01:49:46;;;;;;;36.93;23.93;;;-0.90;99.90;;;;;;5027621;28;20179;-70
2022/01/13 01:52:14;;;;;;;31.50;23.30;;;-1.00;99.90;;;;;;5028969;28;20208;-70
2022/01/13 01:54:39;;;;;;;32.53;23.80;;;-0.90;99.90;;;;;;5014436;28;20177;-70
2022/01/13 01:57:06;;;;;;;37.33;24.20;;;-0.90;99.90;;;;;;5014689;28;20192;-70
2022/01/13 01:59:34;;;;;;;33.57;23.57;;;-0.90;99.90;;;;;;5014381;28;20181;-70
2022/01/13 02:02:01;;;;;;;32.07;23.73;;;-0.80;99.90;;;;;;5034373;28;20172;-70
2022/01/13 02:04:27;;;;;;;34.83;23.47;;;-0.80;99.90;;;;;;5034118;28;20287;-70
2022/01/13 02:06:55;;;;;;;36.93;24.30;;;-0.70;99.90;;;;;;5034387;28;20539;-70
2022/01/13 02:09:21;;;;;;;34.73;23.03;;;-0.70;99.90;;;;;;5023502;28;20169;-70
2022/01/13 02:11:52;;;;;;;35.10;24.00;;;-0.70;99.90;;;;;;5014351;28;20645;-70
2022/01/13 02:16:53;;;;;;;34.90;23.57;;;-0.70;99.90;;;;;;5014660;28;20252;-70
2022/01/13 02:19:19;;;;;;;36.80;23.57;;;-0.70;99.90;;;;;;5014347;28;20189;-70
2022/01/13 02:21:45;;;;;;;34.27;23.30;;;-0.80;99.90;;;;;;5014314;28;20224;-70
2022/01/13 02:24:11;;;;;;;34.20;24.43;;;-0.80;99.90;;;;;;5014169;28;20215;-70
2022/01/13 02:26:37;;;;;;;32.47;22.47;;;-0.60;99.90;;;;;;5026404;28;20176;-70
2022/01/13 02:29:03;;;;;;;33.63;22.63;;;-0.70;99.90;;;;;;5033985;28;20175;-70
2022/01/13 02:31:29;;;;;;;34.50;23.03;;;-0.70;99.90;;;;;;5033956;28;20173;-70
2022/01/13 02:33:54;;;;;;;34.30;23.20;;;-0.70;99.90;;;;;;5025547;28;20292;-70
2022/01/13 02:36:22;;;;;;;33.47;22.87;;;-0.80;99.90;;;;;;5013835;28;20186;-70
2022/01/13 02:38:54;;;;;;;31.83;22.30;;;-0.80;99.90;;;;;;5013934;28;20208;-70
2022/01/13 02:41:23;;;;;;;35.57;23.40;;;-0.70;99.90;;;;;;5013878;28;20725;-70
2022/01/13 02:43:49;;;;;;;34.73;23.83;;;-0.70;99.90;;;;;;5013601;28;20205;-70
2022/01/13 02:46:32;;;;;;;36.37;24.43;;;-0.60;99.90;;;;;;5013673;28;20170;-70
2022/01/13 02:48:59;;;;;;;30.77;22.43;;;-0.70;99.90;;;;;;5021933;28;20177;-70
2022/01/13 02:51:26;;;;;;;34.30;24.00;;;-0.80;99.90;;;;;;5032381;28;20313;-70
2022/01/13 02:53:52;;;;;;;31.67;22.10;;;-0.80;99.90;;;;;;5032113;28;20226;-70
2022/01/13 02:56:18;;;;;;;35.00;23.70;;;-0.80;99.90;;;;;;5033327;28;20732;-70
2022/01/13 02:58:45;;;;;;;35.73;24.07;;;-0.70;99.90;;;;;;5032061;28;20187;-70
2022/01/13 03:01:11;;;;;;;31.80;22.37;;;-0.80;99.90;;;;;;5021861;28;20280;-70
2022/01/13 03:03:38;;;;;;;35.70;23.93;;;-0.70;99.90;;;;;;5013854;28;20698;-70
2022/01/13 03:06:09;;;;;;;36.90;23.87;;;-0.70;99.90;;;;;;5029986;28;20171;-71
2022/01/13 03:08:41;;;;;;;34.27;22.97;;;-0.80;99.90;;;;;;5019222;28;20177;-71
2022/01/13 03:11:07;;;;;;;35.50;24.07;;;-0.80;99.90;;;;;;5021963;28;20189;-71
2022/01/13 03:13:33;;;;;;;34.03;23.53;;;-0.80;99.90;;;;;;5022107;28;20236;-71
2022/01/13 03:16:03;;;;;;;36.07;24.50;;;-0.80;99.90;;;;;;5021434;28;20186;-72
2022/01/13 03:18:29;;;;;;;33.63;23.23;;;-0.70;99.90;;;;;;5018948;28;20238;-72
2022/01/13 03:20:54;;;;;;;33.27;23.73;;;-0.50;99.90;;;;;;5019389;28;20260;-71
2022/01/13 03:23:20;;;;;;;36.13;24.83;;;-0.50;99.90;;;;;;5014438;28;20284;-71
2022/01/13 03:25:46;;;;;;;35.43;23.63;;;-0.50;99.90;;;;;;5018625;28;20182;-71
2022/01/13 03:28:18;;;;;;;36.53;25.33;;;-0.60;99.90;;;;;;5023484;28;20197;-71
2022/01/13 03:30:44;;;;;;;32.23;23.27;;;-0.60;99.90;;;;;;5021111;28;20212;-72
2022/01/13 03:33:11;;;;;;;33.87;23.40;;;-0.50;99.90;;;;;;5022757;28;20202;-72
2022/01/13 03:35:39;;;;;;;39.23;26.03;;;-0.40;99.90;;;;;;5014764;28;20267;-72
2022/01/13 03:38:06;;;;;;;35.47;23.53;;;-0.40;99.90;;;;;;5013078;28;20227;-71
2022/01/13 03:40:33;;;;;;;38.77;25.20;;;-0.40;99.90;;;;;;5012834;28;20170;-71
2022/01/13 03:43:01;;;;;;;36.37;24.63;;;-0.40;99.90;;;;;;5012798;28;20690;-71
2022/01/13 03:45:27;;;;;;;34.90;23.63;;;-0.60;99.90;;;;;;5012835;28;20172;-70
2022/01/13 03:47:54;;;;;;;37.93;25.50;;;-0.60;99.90;;;;;;5014503;28;20177;-70
2022/01/13 03:50:20;;;;;;;34.93;25.93;;;-0.70;99.90;;;;;;5023439;28;20196;-71
2022/01/13 03:53:05;;;;;;;34.37;24.17;;;-0.70;99.90;;;;;;5015165;28;20205;-71
2022/01/13 03:56:09;;;;;;;35.63;24.33;;;-0.60;99.90;;;;;;5014913;28;20192;-71
2022/01/13 03:59:06;;;;;;;35.90;24.50;;;-0.50;99.90;;;;;;5012902;28;20664;-71
2022/01/13 04:01:55;;;;;;;35.87;24.10;;;-0.50;99.90;;;;;;5011179;28;20208;-71
2022/01/13 04:04:21;;;;;;;35.67;23.37;;;-0.50;99.90;;;;;;5010602;28;20208;-71
2022/01/13 04:06:46;;;;;;;35.50;23.97;;;-0.40;99.90;;;;;;5020086;28;20189;-71
2022/01/13 04:09:29;;;;;;;37.33;25.70;;;-0.30;99.90;;;;;;5012478;28;20174;-71
2022/01/13 04:11:55;;;;;;;34.27;24.17;;;-0.40;99.90;;;;;;5017583;28;20302;-71
2022/01/13 04:14:28;;;;;;;38.13;26.20;;;-0.40;99.90;;;;;;5031755;28;20193;-71
2022/01/13 04:16:54;;;;;;;35.70;24.40;;;-0.40;99.90;;;;;;5011812;28;20184;-71
2022/01/13 04:19:20;;;;;;;36.07;25.43;;;-0.50;99.90;;;;;;5011957;28;20263;-71
2022/01/13 04:21:45;;;;;;;37.47;24.30;;;-0.60;99.90;;;;;;5010958;28;20181;-71
2022/01/13 04:24:12;;;;;;;39.90;25.30;;;-0.60;99.90;;;;;;5022916;28;20218;-71
2022/01/13 04:26:41;;;;;;;35.50;23.77;;;-0.60;99.90;;;;;;5031745;28;20239;-71
2022/01/13 04:31:39;;;;;;;44.50;26.83;;;-0.50;99.90;;;;;;5031731;28;20168;-71
2022/01/13 04:34:05;;;;;;;42.70;26.80;;;-0.60;99.90;;;;;;5013393;28;20201;-71
2022/01/13 04:36:31;;;;;;;38.87;27.20;;;-0.60;99.90;;;;;;5015838;28;20674;-70
2022/01/13 04:38:57;;;;;;;40.17;26.47;;;-0.60;99.90;;;;;;5031599;28;20230;-71
2022/01/13 04:41:33;;;;;;;37.60;25.93;;;-0.60;99.90;;;;;;5025168;28;20710;-71
2022/01/13 04:43:58;;;;;;;34.27;22.50;;;-0.60;99.90;;;;;;5030793;28;20206;-70
2022/01/13 04:46:24;;;;;;;39.17;25.30;;;-0.50;99.90;;;;;;5030848;28;20172;-71
2022/01/13 04:48:50;;;;;;;40.23;26.17;;;-0.30;99.90;;;;;;5027541;28;20181;-70
2022/01/13 04:51:16;;;;;;;40.00;25.33;;;-0.30;99.90;;;;;;5026548;28;20191;-71
2022/01/13 04:53:42;;;;;;;38.57;26.17;;;-0.40;99.90;;;;;;5051309;28;20565;-70
2022/01/13 04:56:12;;;;;;;38.13;27.00;;;-0.40;99.90;;;;;;5030957;28;20184;-71
2022/01/13 04:58:38;;;;;;;40.17;25.03;;;-0.40;99.90;;;;;;5031688;28;20691;-71
2022/01/13 05:01:04;;;;;;;41.70;27.67;;;-0.40;99.90;;;;;;5031505;28;20227;-71
2022/01/13 05:03:30;;;;;;;42.97;27.23;;;-0.50;99.90;;;;;;5030169;28;20291;-71
2022/01/13 05:05:55;;;;;;;40.30;26.40;;;-0.60;99.90;;;;;;5031197;28;20168;-71
2022/01/13 05:08:21;;;;;;;38.37;25.67;;;-0.50;99.90;;;;;;5031443;28;20272;-71
2022/01/13 05:10:46;;;;;;;40.63;26.83;;;-0.40;99.90;;;;;;5031457;28;20181;-70
2022/01/13 05:13:12;;;;;;;37.57;25.47;;;-0.40;99.90;;;;;;5011559;28;20256;-71
2022/01/13 05:15:41;;;;;;;38.13;25.63;;;-0.50;99.90;;;;;;5011537;28;20169;-71
2022/01/13 05:18:29;;;;;;;37.77;25.47;;;-0.50;99.90;;;;;;5011836;28;20170;-71
2022/01/13 05:21:02;;;;;;;37.50;24.60;;;-0.50;99.90;;;;;;5011793;28;20614;-71
2022/01/13 05:23:28;;;;;;;36.17;24.33;;;-0.50;99.90;;;;;;5011615;28;20220;-71
2022/01/13 05:25:54;;;;;;;39.50;25.83;;;-0.50;99.90;;;;;;5011319;28;20514;-71
2022/01/13 05:28:20;;;;;;;39.00;25.53;;;-0.50;99.90;;;;;;5011987;28;20185;-71
2022/01/13 05:30:46;;;;;;;40.10;26.20;;;-0.50;99.90;;;;;;5027299;28;20662;-71
2022/01/13 05:33:11;;;;;;;37.03;24.10;;;-0.60;99.90;;;;;;5034962;28;20192;-70
2022/01/13 05:35:37;;;;;;;41.53;25.90;;;-0.50;99.90;;;;;;5034627;28;20176;-71
2022/01/13 05:38:05;;;;;;;36.00;23.90;;;-0.50;99.90;;;;;;5034891;28;20172;-71
2022/01/13 05:40:31;;;;;;;38.63;25.60;;;-0.50;99.90;;;;;;5021187;28;20301;-71
2022/01/13 05:42:56;;;;;;;38.80;26.10;;;-0.50;99.90;;;;;;5021959;28;20851;-70
2022/01/13 05:45:28;;;;;;;39.77;25.63;;;-0.40;99.90;;;;;;5034035;28;20187;-71
2022/01/13 05:47:55;;;;;;;36.83;25.00;;;-0.50;99.90;;;;;;5015012;28;20176;-71
2022/01/13 05:50:21;;;;;;;36.80;24.77;;;-0.40;99.90;;;;;;5025555;28;20173;-71
2022/01/13 05:52:47;;;;;;;37.57;24.83;;;-0.40;99.90;;;;;;5026663;28;20205;-71
2022/01/13 05:55:13;;;;;;;36.77;25.50;;;-0.30;99.90;;;;;;5014694;28;20255;-71
2022/01/13 05:57:39;;;;;;;39.33;24.90;;;-0.30;99.90;;;;;;5014903;28;20177;-71
2022/01/13 06:00:08;;;;;;;35.60;25.03;;;-0.10;99.90;;;;;;5024011;28;20204;-71
2022/01/13 06:02:34;;;;;;;35.00;24.13;;;0.00;99.90;;;;;;5016289;28;20205;-71
2022/01/13 06:04:59;;;;;;;37.03;24.57;;;0.00;99.90;;;;;;5014335;28;20223;-71
2022/01/13 06:07:25;;;;;;;38.13;25.63;;;0.10;99.90;;;;;;5027929;28;20180;-71
2022/01/13 06:09:50;;;;;;;36.37;24.03;;;-0.10;99.90;;;;;;5021891;28;20603;-71
2022/01/13 06:12:17;;;;;;;37.53;25.13;;;-0.30;99.90;;;;;;5022358;28;20201;-71
2022/01/13 06:14:43;;;;;;;39.00;25.37;;;-0.30;99.90;;;;;;5023951;28;20169;-71
2022/01/13 06:17:09;;;;;;;37.37;24.63;;;-0.50;99.90;;;;;;5022043;28;20667;-71
2022/01/13 06:19:34;;;;;;;35.33;25.73;;;-0.50;99.90;;;;;;5014427;28;20181;-72
2022/01/13 06:22:00;;;;;;;39.77;26.27;;;-0.40;99.90;;;;;;5014420;28;20267;-72
2022/01/13 06:24:26;;;;;;;35.67;24.97;;;-0.50;99.90;;;;;;5013904;28;20583;-72
2022/01/13 06:26:51;;;;;;;36.03;24.03;;;-0.40;99.90;;;;;;5014158;28;20227;-71
2022/01/13 06:29:17;;;;;;;41.53;25.93;;;-0.40;99.90;;;;;;5014045;28;20180;-72
2022/01/13 06:31:42;;;;;;;36.83;26.37;;;-0.50;99.90;;;;;;5016728;28;20658;-71
2022/01/13 06:34:08;;;;;;;38.77;26.63;;;-0.50;99.90;;;;;;5028579;28;20664;-71
2022/01/13 06:36:34;;;;;;;37.73;26.40;;;-0.60;99.90;;;;;;5021345;28;20235;-71
2022/01/13 06:39:00;;;;;;;40.47;25.67;;;-0.60;99.90;;;;;;5029677;28;20176;-71
2022/01/13 06:41:25;;;;;;;34.50;24.23;;;-0.40;99.90;;;;;;5028608;28;20188;-71
2022/01/13 06:43:51;;;;;;;40.23;26.50;;;-0.40;99.90;;;;;;5037725;28;20204;-71
2022/01/13 06:46:17;;;;;;;36.40;24.83;;;-0.30;99.90;;;;;;5022777;28;20228;-72
2022/01/13 06:48:43;;;;;;;36.53;23.87;;;-0.20;99.90;;;;;;5013826;28;20243;-72
2022/01/13 06:51:09;;;;;;;42.53;27.63;;;-0.20;99.90;;;;;;5015761;28;20226;-72
2022/01/13 06:53:35;;;;;;;39.93;28.33;;;-0.30;99.90;;;;;;5013458;28;20229;-72
2022/01/13 06:56:00;;;;;;;36.00;25.60;;;-0.40;99.90;;;;;;5013301;28;20174;-71
2022/01/13 06:58:27;;;;;;;38.47;26.03;;;-0.30;99.90;;;;;;5018725;28;20582;-72
2022/01/13 07:00:53;;;;;;;41.27;26.90;;;-0.30;99.90;;;;;;5020249;28;20271;-72
2022/01/13 07:03:20;;;;;;;39.17;26.53;;;-0.40;99.90;;;;;;5013201;28;20300;-72
2022/01/13 07:05:46;;;;;;;41.47;27.17;;;-0.30;99.90;;;;;;5013076;28;20775;-72
2022/01/13 07:08:12;;;;;;;40.73;25.60;;;-0.20;99.90;;;;;;5013359;28;20192;-72
2022/01/13 07:10:37;;;;;;;43.37;26.50;;;-0.10;99.90;;;;;;5013495;28;20185;-72
2022/01/13 07:13:03;;;;;;;37.53;25.17;;;-0.20;99.90;;;;;;5019129;28;20259;-72
2022/01/13 07:15:31;;;;;;;37.80;25.63;;;-0.10;99.90;;;;;;5030145;28;20436;-72
2022/01/13 07:17:57;;;;;;;36.73;25.20;;;-0.10;99.90;;;;;;5029782;28;20238;-72
2022/01/13 07:20:24;;;;;;;36.07;24.73;;;-0.10;99.90;;;;;;5030335;28;20180;-72
2022/01/13 07:22:51;;;;;;;37.93;26.03;;;-0.20;99.90;;;;;;5023986;28;20259;-71
2022/01/13 07:25:17;;;;;;;40.33;25.63;;;-0.10;99.90;;;;;;5017439;28;20205;-71
2022/01/13 07:27:43;;;;;;;38.30;26.27;;;-0.20;99.90;;;;;;5017108;28;20303;-72
2022/01/13 07:30:10;;;;;;;39.40;26.70;;;-0.30;99.90;;;;;;5020877;28;20727;-72
2022/01/13 07:32:40;;;;;;;39.13;26.33;;;-0.40;99.90;;;;;;5022904;28;20184;-72
2022/01/13 07:35:06;;;;;;;45.33;28.00;;;-0.40;99.90;;;;;;5017759;28;20173;-72
2022/01/13 07:37:32;;;;;;;37.30;26.27;;;-0.40;99.90;;;;;;5012449;28;20715;-72
2022/01/13 07:39:58;;;;;;;36.47;25.73;;;-0.30;99.90;;;;;;5023491;28;20267;-72
2022/01/13 07:42:25;;;;;;;37.67;26.17;;;-0.20;99.90;;;;;;5031926;28;20208;-72
2022/01/13 07:44:51;;;;;;;37.20;24.83;;;-0.10;99.90;;;;;;5023436;28;20330;-73
2022/01/13 07:47:16;;;;;;;38.30;27.27;;;0.00;99.90;;;;;;5032348;28;20661;-72
2022/01/13 07:49:42;;;;;;;37.13;23.93;;;0.10;99.90;;;;;;5032249;28;20218;-72
2022/01/13 07:52:07;;;;;;;37.80;25.47;;;0.10;99.90;;;;;;5028024;28;20201;-72
2022/01/13 07:54:33;;;;;;;38.20;26.90;;;0.20;99.90;;;;;;5026279;28;20290;-73
2022/01/13 07:56:59;;;;;;;37.67;24.00;;;0.20;99.90;;;;;;5032479;28;20200;-72
2022/01/13 07:59:28;;;;;;;38.23;26.53;;;0.10;99.90;;;;;;5027617;28;20176;-73
2022/01/13 08:01:58;;;;;;;43.10;27.27;;;0.00;99.90;;;;;;5020137;28;20197;-72
2022/01/13 08:04:24;;;;;;;41.13;26.83;;;-0.20;99.90;;;;;;5014766;28;20207;-71
2022/01/13 08:06:50;;;;;;;39.03;26.17;;;-0.10;99.90;;;;;;5032175;28;20173;-71
2022/01/13 08:09:15;;;;;;;42.03;26.77;;;0.00;99.90;;;;;;5032174;28;20219;-71
2022/01/13 08:11:41;;;;;;;39.67;26.40;;;0.00;99.90;;;;;;5030274;28;20193;-70
2022/01/13 08:14:07;;;;;;;34.87;22.20;;;0.10;99.90;;;;;;5031490;28;20242;-69
2022/01/13 08:16:35;;;;;;;38.87;26.90;;;0.20;99.90;;;;;;5031468;28;20264;-70
2022/01/13 08:21:46;;;;;;;39.93;23.63;;;-0.10;99.90;;;;;;5012176;28;20261;-70
2022/01/13 08:24:12;;;;;;;37.60;26.27;;;-0.10;99.90;;;;;;5019563;28;20671;-70
2022/01/13 08:26:37;;;;;;;38.23;24.63;;;0.10;99.90;;;;;;5021323;28;20195;-71
2022/01/13 08:29:04;;;;;;;38.47;26.03;;;0.20;99.90;;;;;;5017590;28;20251;-70
2022/01/13 08:31:30;;;;;;;38.00;24.43;;;0.50;99.90;;;;;;5031849;28;20172;-71
2022/01/13 08:33:55;;;;;;;41.10;26.73;;;0.50;99.90;;;;;;5026549;28;20207;-71
2022/01/13 08:36:21;;;;;;;37.93;24.37;;;0.50;99.90;;;;;;5021645;28;20553;-71
2022/01/13 08:38:49;;;;;;;35.83;23.50;;;0.70;99.90;;;;;;5021059;28;20204;-71
2022/01/13 08:41:15;;;;;;;32.47;21.23;;;0.80;99.90;;;;;;5013264;28;20288;-72
2022/01/13 08:43:40;;;;;;;39.17;22.90;;;1.00;99.90;;;;;;5021792;28;20244;-72
2022/01/13 08:46:06;;;;;;;32.97;22.50;;;0.90;99.90;;;;;;5012221;28;20538;-72
2022/01/13 08:48:33;;;;;;;35.83;24.73;;;0.80;99.90;;;;;;5021184;28;20625;-70
2022/01/13 08:50:59;;;;;;;39.33;21.67;;;0.80;99.90;;;;;;5017025;28;20184;-70
2022/01/13 08:53:25;;;;;;;34.03;22.90;;;0.90;99.90;;;;;;5016306;28;20201;-70
2022/01/13 08:55:54;;;;;;;36.30;24.83;;;0.90;99.90;;;;;;5016947;28;20707;-70
2022/01/13 08:58:20;;;;;;;29.83;19.70;;;0.80;99.90;;;;;;5016750;28;20173;-71
2022/01/13 09:00:46;;;;;;;32.90;21.10;;;0.90;99.90;;;;;;5018873;28;20718;-71
2022/01/13 09:03:14;;;;;;;30.70;20.80;;;1.10;99.90;;;;;;5018970;28;20201;-70
2022/01/13 09:05:42;;;;;;;41.00;25.77;;;1.10;99.90;;;;;;5023361;28;20181;-71
2022/01/13 09:08:12;;;;;;;32.43;21.33;;;1.00;99.90;;;;;;5020749;28;20542;-72
2022/01/13 09:10:39;;;;;;;33.43;22.53;;;0.90;99.90;;;;;;5015852;28;20165;-72
2022/01/13 09:13:11;;;;;;;30.47;19.87;;;1.00;99.90;;;;;;5015348;28;20197;-70
2022/01/13 09:15:41;;;;;;;29.13;20.10;;;1.00;99.90;;;;;;5025326;28;20193;-71
2022/01/13 09:18:32;;;;;;;34.47;22.40;;;1.00;99.90;;;;;;5035110;28;20595;-74
2022/01/13 09:20:58;;;;;;;33.33;21.63;;;1.00;99.90;;;;;;5032648;28;20200;-73
2022/01/13 09:23:24;;;;;;;34.80;22.53;;;1.00;99.90;;;;;;5017770;28;20706;-71
2022/01/13 09:25:50;;;;;;;26.27;17.30;;;1.00;99.90;;;;;;5015194;28;20268;-71
2022/01/13 09:28:15;;;;;;;29.47;20.93;;;1.10;99.90;;;;;;5028239;28;20181;-71
2022/01/13 09:30:41;;;;;;;33.07;20.93;;;1.10;99.90;;;;;;5024899;28;20209;-71
2022/01/13 09:33:07;;;;;;;32.00;20.20;;;1.20;99.90;;;;;;5018215;28;20205;-73
2022/01/13 09:35:34;;;;;;;37.37;22.03;;;1.10;99.90;;;;;;5032939;28;20192;-72
2022/01/13 09:38:01;;;;;;;35.80;23.07;;;1.10;99.90;;;;;;5031812;28;20188;-71
2022/01/13 09:40:27;;;;;;;34.70;21.33;;;1.10;99.90;;;;;;5020712;28;20180;-70
2022/01/13 09:42:54;;;;;;;37.30;23.13;;;1.00;99.90;;;;;;5022525;28;20197;-72
2022/01/13 09:45:21;;;;;;;32.63;22.03;;;0.90;99.90;;;;;;5014593;28;20655;-72
2022/01/13 09:47:48;;;;;;;34.30;23.37;;;1.00;99.90;;;;;;5014656;28;20280;-76
2022/01/13 09:50:17;;;;;;;29.20;19.83;;;1.00;99.90;;;;;;5025412;28;20265;-75
2022/01/13 09:52:43;;;;;;;29.53;20.17;;;1.10;99.90;;;;;;5034797;28;20184;-75
2022/01/13 09:55:10;;;;;;;30.83;19.43;;;1.10;99.90;;;;;;5018385;28;20189;-74
2022/01/13 09:57:42;;;;;;;32.73;20.63;;;1.10;99.90;;;;;;5018522;28;20258;-71
2022/01/13 10:00:08;;;;;;;32.90;21.00;;;1.10;99.90;;;;;;5019391;28;20246;-72
2022/01/13 10:02:33;;;;;;;32.33;20.53;;;1.20;99.90;;;;;;5024495;28;20251;-72
2022/01/13 10:04:59;;;;;;;30.90;19.73;;;1.10;99.90;;;;;;5022651;28;20212;-71
2022/01/13 10:07:34;;;;;;;31.77;20.87;;;1.20;99.90;;;;;;5031609;28;20177;-72
2022/01/13 10:10:04;;;;;;;26.03;18.00;;;1.30;99.90;;;;;;5026554;28;20177;-73
2022/01/13 10:12:37;;;;;;;29.77;18.97;;;1.30;99.90;;;;;;5019601;28;20201;-72
2022/01/13 10:17:46;;;;;;;33.07;20.83;;;1.30;99.90;;;;;;5038206;28;20192;-72
2022/01/13 10:20:14;;;;;;;28.87;18.33;;;1.50;99.90;;;;;;5021402;28;20267;-74
2022/01/13 10:22:40;;;;;;;27.07;19.67;;;1.30;99.90;;;;;;5032179;28;20592;-76
2022/01/13 10:25:08;;;;;;;28.17;19.03;;;1.30;99.90;;;;;;5018962;28;20422;-73
2022/01/13 10:27:36;;;;;;;29.07;18.37;;;1.30;99.90;;;;;;5030445;28;20175;-73
2022/01/13 10:30:13;;;;;;;28.03;20.03;;;1.30;99.90;;;;;;5026452;28;20173;-72
2022/01/13 10:32:40;;;;;;;26.33;18.20;;;1.30;99.90;;;;;;5025198;28;20205;-73
2022/01/13 10:35:15;;;;;;;30.63;19.37;;;1.20;99.90;;;;;;5025440;28;20652;-73
2022/01/13 10:37:44;;;;;;;28.77;18.73;;;1.20;99.90;;;;;;5027613;28;20580;-72
2022/01/13 10:40:15;;;;;;;27.00;17.87;;;1.10;99.90;;;;;;5027191;28;20189;-73
2022/01/13 10:45:21;;;;;;;28.43;18.30;;;1.30;99.90;;;;;;5025288;28;20679;-73
2022/01/13 10:47:54;;;;;;;29.97;19.63;;;1.50;99.90;;;;;;5018926;28;20862;-73
2022/01/13 10:50:21;;;;;;;26.93;17.33;;;1.40;99.90;;;;;;5023524;28;20205;-74
2022/01/13 10:52:49;;;;;;;29.80;17.60;;;1.50;99.90;;;;;;5020911;28;20197;-72
2022/01/13 10:55:21;;;;;;;26.67;17.33;;;1.40;99.90;;;;;;5012788;28;20227;-75
2022/01/13 10:57:48;;;;;;;26.93;17.50;;;1.30;99.90;;;;;;5016418;28;20212;-72
2022/01/13 11:00:16;;;;;;;27.20;18.73;;;1.50;99.90;;;;;;5025441;28;20196;-73
2022/01/13 11:02:46;;;;;;;24.23;17.37;;;1.40;99.90;;;;;;5025237;28;20231;-72
2022/01/13 11:05:12;;;;;;;27.97;19.10;;;1.50;99.90;;;;;;5020844;28;20251;-72
2022/01/13 11:07:41;;;;;;;27.57;15.40;;;1.50;99.90;;;;;;5022601;28;20185;-72
2022/01/13 11:10:07;;;;;;;27.23;15.30;;;1.50;99.90;;;;;;5022250;28;20622;-72
2022/01/13 11:12:43;;;;;;;28.57;18.40;;;1.70;99.90;;;;;;5022446;28;20611;-71
2022/01/13 11:15:16;;;;;;;33.07;20.60;;;1.80;99.90;;;;;;5017229;28;20216;-73
2022/01/13 11:17:45;;;;;;;30.53;19.53;;;1.70;99.90;;;;;;5013074;28;20188;-72
2022/01/13 11:20:21;;;;;;;29.30;19.80;;;1.80;99.90;;;;;;5013490;28;20200;-71
2022/01/13 11:22:49;;;;;;;30.60;18.93;;;1.80;99.90;;;;;;5013244;28;20193;-72
2022/01/13 11:25:24;;;;;;;31.90;21.17;;;1.80;99.90;;;;;;5012562;28;20205;-73
2022/01/13 11:27:52;;;;;;;32.83;19.27;;;1.80;99.90;;;;;;5015200;28;20537;-73
2022/01/13 11:30:20;;;;;;;28.30;18.37;;;1.90;99.90;;;;;;5032634;28;20173;-75
2022/01/13 11:32:47;;;;;;;24.20;13.87;;;2.00;99.90;;;;;;5032974;28;20243;-75
2022/01/13 11:35:18;;;;;;;32.03;19.77;;;2.00;99.90;;;;;;5030615;28;20540;-73
2022/01/13 11:37:45;;;;;;;31.80;19.77;;;1.90;99.90;;;;;;5033084;28;20168;-74
2022/01/13 11:40:32;;;;;;;28.90;17.83;;;1.80;99.90;;;;;;5026400;28;20176;-75
2022/01/13 11:43:00;;;;;;;29.27;19.93;;;1.80;99.90;;;;;;5015241;28;20209;-74
2022/01/13 11:45:27;;;;;;;29.40;20.83;;;1.70;99.90;;;;;;5015267;28;20209;-74
2022/01/13 11:48:12;;;;;;;31.33;20.70;;;1.70;99.90;;;;;;5014328;28;20660;-74
2022/01/13 11:50:48;;;;;;;33.97;23.13;;;1.50;99.90;;;;;;5025386;28;20650;-72
2022/01/13 11:53:29;;;;;;;31.07;20.70;;;1.60;99.90;;;;;;5031532;28;20184;-72
2022/01/13 11:56:07;;;;;;;29.47;19.90;;;1.70;99.90;;;;;;5015069;28;20184;-73
2022/01/13 11:58:44;;;;;;;30.07;21.20;;;1.90;99.90;;;;;;5012730;28;20169;-72
2022/01/13 12:01:28;;;;;;;29.93;20.37;;;1.90;99.90;;;;;;5012410;28;20201;-72
2022/01/13 12:03:56;;;;;;;30.80;21.80;;;1.80;99.90;;;;;;5013333;28;20684;-73
2022/01/13 12:06:37;;;;;;;30.07;21.47;;;1.90;99.90;;;;;;5032046;28;20538;-72
2022/01/13 12:09:05;;;;;;;33.13;23.77;;;2.00;99.90;;;;;;5031026;28;20686;-72
2022/01/13 12:11:38;;;;;;;33.03;21.57;;;1.90;99.90;;;;;;5031836;28;20675;-72
2022/01/13 12:14:27;;;;;;;36.50;23.03;;;1.70;99.90;;;;;;5022876;28;20548;-74
2022/01/13 12:16:56;;;;;;;31.23;20.67;;;1.50;99.90;;;;;;5019864;28;20263;-70
2022/01/13 12:19:36;;;;;;;33.83;20.77;;;1.70;99.90;;;;;;5022628;28;20545;-70
2022/01/13 12:22:10;;;;;;;38.60;25.30;;;1.80;99.90;;;;;;5013979;28;20626;-71
2022/01/13 12:24:45;;;;;;;31.87;21.47;;;1.70;99.90;;;;;;5013524;28;20212;-71
2022/01/13 12:27:10;;;;;;;37.30;22.07;;;1.50;99.90;;;;;;5020840;28;20183;-74
2022/01/13 12:30:02;;;;;;;37.83;22.53;;;1.60;99.90;;;;;;5019092;28;20242;-71
2022/01/13 12:32:49;;;;;;;36.97;22.93;;;1.60;99.90;;;;;;5018528;28;20707;-74
2022/01/13 12:35:30;;;;;;;36.00;21.57;;;1.60;99.90;;;;;;5027325;28;20181;-71
2022/01/13 12:38:06;;;;;;;36.53;21.83;;;1.70;99.90;;;;;;5020150;28;20258;-72
2022/01/13 12:40:49;;;;;;;34.30;21.60;;;1.70;99.90;;;;;;5021188;28;20235;-71
2022/01/13 12:46:17;;;;;;;32.30;20.77;;;2.00;99.90;;;;;;5021367;28;20185;-73
2022/01/13 12:48:46;;;;;;;28.30;16.67;;;2.30;99.90;;;;;;5018721;28;20212;-72
2022/01/13 12:51:17;;;;;;;34.47;22.80;;;2.20;99.90;;;;;;5020928;28;20659;-72
2022/01/13 12:53:43;;;;;;;32.87;20.67;;;2.20;99.90;;;;;;5020425;28;20204;-72
2022/01/13 12:56:16;;;;;;;33.80;19.10;;;2.10;99.90;;;;;;5026342;28;20192;-72
2022/01/13 12:58:50;;;;;;;28.63;17.57;;;2.00;99.90;;;;;;5026091;28;20177;-71
2022/01/13 13:01:28;;;;;;;33.10;21.37;;;2.20;99.90;;;;;;5025416;28;20208;-71
2022/01/13 13:04:01;;;;;;;32.00;21.13;;;2.30;99.90;;;;;;5011853;28;20219;-71